createdAt,value
2018-06-04T00:00:10.095Z,18.45
2018-06-04T00:01:10.067Z,18.34
2018-06-04T00:02:10.035Z,18.33
2018-06-04T00:03:09.999Z,18.23
2018-06-04T00:04:09.965Z,18.25
2018-06-04T00:05:09.930Z,18.22
2018-06-04T00:06:09.899Z,18.22
2018-06-04T00:07:09.863Z,18.19
2018-06-04T00:08:09.838Z,18.23
2018-06-04T00:09:09.804Z,18.22
2018-06-04T00:10:09.771Z,18.15
2018-06-04T00:11:09.743Z,18.15
2018-06-04T00:12:09.704Z,18.10
2018-06-04T00:13:09.677Z,17.97
2018-06-04T00:14:09.638Z,17.92
2018-06-04T00:15:09.613Z,17.82
2018-06-04T00:16:09.574Z,17.82
2018-06-04T00:17:09.544Z,17.86
2018-06-04T00:18:09.537Z,17.94
2018-06-04T00:19:09.477Z,17.87
2018-06-04T00:20:09.450Z,17.95
2018-06-04T00:21:09.417Z,17.90
2018-06-04T00:22:09.383Z,18.07
2018-06-04T00:23:09.351Z,17.95
2018-06-04T00:24:09.313Z,17.90
2018-06-04T00:25:09.290Z,17.97
2018-06-04T00:26:09.252Z,17.97
2018-06-04T00:27:09.218Z,17.92
2018-06-04T00:28:09.193Z,17.83
2018-06-04T00:29:09.157Z,17.85
2018-06-04T00:30:09.121Z,17.85
2018-06-04T00:31:09.087Z,17.87
2018-06-04T00:32:09.064Z,17.83
2018-06-04T00:33:09.031Z,17.86
2018-06-04T00:34:08.993Z,17.83
2018-06-04T00:35:08.962Z,17.83
2018-06-04T00:36:08.923Z,17.85
2018-06-04T00:37:08.896Z,17.85
2018-06-04T00:38:08.863Z,17.90
2018-06-04T00:39:08.826Z,17.90
2018-06-04T00:40:08.800Z,17.97
2018-06-04T00:41:08.770Z,18.04
2018-06-04T00:42:08.733Z,18.01
2018-06-04T00:43:08.703Z,18.00
2018-06-04T00:44:08.668Z,18.08
2018-06-04T00:45:08.635Z,18.11
2018-06-04T00:46:08.603Z,18.03
2018-06-04T00:47:08.574Z,18.18
2018-06-04T00:48:08.535Z,18.07
2018-06-04T00:49:08.505Z,18.13
2018-06-04T00:50:08.478Z,18.05
2018-06-04T00:51:08.434Z,18.07
2018-06-04T00:52:08.409Z,18.03
2018-06-04T00:53:08.377Z,18.01
2018-06-04T00:54:08.345Z,18.00
2018-06-04T00:55:08.311Z,17.94
2018-06-04T00:56:08.274Z,17.94
2018-06-04T00:57:08.248Z,17.97
2018-06-04T00:58:08.212Z,17.98
2018-06-04T00:59:08.183Z,17.94
2018-06-04T01:00:08.151Z,17.98
2018-06-04T01:01:08.116Z,18.03
2018-06-04T01:02:08.086Z,17.95
2018-06-04T01:03:08.048Z,18.00
2018-06-04T01:04:08.024Z,18.00
2018-06-04T01:05:07.987Z,17.97
2018-06-04T01:06:07.952Z,18.11
2018-06-04T01:07:07.923Z,18.05
2018-06-04T01:08:07.884Z,18.05
2018-06-04T01:09:07.854Z,18.07
2018-06-04T01:10:07.830Z,18.15
2018-06-04T01:11:07.786Z,18.05
2018-06-04T01:12:07.761Z,18.04
2018-06-04T01:13:07.726Z,18.04
2018-06-04T01:14:07.693Z,18.01
2018-06-04T01:15:07.662Z,18.01
2018-06-04T01:16:07.624Z,18.03
2018-06-04T01:17:07.595Z,18.03
2018-06-04T01:18:07.561Z,18.04
2018-06-04T01:19:07.532Z,17.97
2018-06-04T01:20:07.493Z,17.98
2018-06-04T01:21:07.466Z,17.94
2018-06-04T01:22:07.431Z,17.90
2018-06-04T01:23:07.396Z,17.85
2018-06-04T01:24:07.368Z,17.80
2018-06-04T01:25:07.339Z,17.80
2018-06-04T01:26:07.302Z,17.83
2018-06-04T01:27:07.274Z,17.72
2018-06-04T01:28:07.232Z,17.59
2018-06-04T01:29:07.201Z,17.67
2018-06-04T01:30:07.171Z,17.64
2018-06-04T01:31:07.132Z,17.64
2018-06-04T01:32:07.109Z,17.60
2018-06-04T01:33:07.074Z,17.67
2018-06-04T01:34:07.044Z,17.59
2018-06-04T01:35:07.005Z,17.63
2018-06-04T01:36:06.975Z,17.59
2018-06-04T01:37:06.944Z,17.48
2018-06-04T01:38:06.907Z,17.46
2018-06-04T01:39:06.877Z,17.51
2018-06-04T01:40:06.839Z,17.54
2018-06-04T01:41:06.810Z,17.34
2018-06-04T01:42:06.777Z,17.26
2018-06-04T01:43:06.739Z,17.26
2018-06-04T01:44:06.712Z,17.30
2018-06-04T01:45:06.680Z,17.26
2018-06-04T01:46:06.647Z,17.22
2018-06-04T01:47:06.616Z,17.23
2018-06-04T01:48:06.584Z,17.27
2018-06-04T01:49:06.551Z,17.33
2018-06-04T01:50:06.515Z,17.24
2018-06-04T01:51:06.487Z,17.23
2018-06-04T01:52:06.449Z,17.20
2018-06-04T01:53:06.423Z,17.20
2018-06-04T01:54:06.382Z,17.09
2018-06-04T01:55:06.350Z,17.09
2018-06-04T01:56:06.319Z,17.16
2018-06-04T01:57:06.286Z,17.08
2018-06-04T01:58:06.252Z,17.29
2018-06-04T01:59:06.221Z,17.16
2018-06-04T02:00:06.183Z,17.19
2018-06-04T02:01:06.152Z,17.26
2018-06-04T02:02:06.116Z,17.22
2018-06-04T02:03:06.083Z,17.19
2018-06-04T02:04:06.057Z,17.19
2018-06-04T02:05:06.022Z,17.29
2018-06-04T02:06:05.988Z,17.26
2018-06-04T02:07:05.953Z,17.19
2018-06-04T02:08:05.927Z,17.19
2018-06-04T02:09:05.892Z,17.24
2018-06-04T02:10:05.856Z,17.27
2018-06-04T02:11:05.827Z,17.26
2018-06-04T02:12:05.789Z,17.24
2018-06-04T02:13:05.757Z,17.26
2018-06-04T02:14:05.727Z,17.01
2018-06-04T02:15:05.693Z,17.06
2018-06-04T02:16:05.665Z,17.04
2018-06-04T02:17:05.626Z,17.04
2018-06-04T02:18:05.596Z,17.06
2018-06-04T02:19:05.562Z,17.12
2018-06-04T02:20:05.524Z,17.04
2018-06-04T02:21:05.493Z,17.11
2018-06-04T02:22:05.463Z,17.04
2018-06-04T02:23:05.432Z,17.05
2018-06-04T02:24:05.390Z,17.02
2018-06-04T02:25:05.361Z,16.91
2018-06-04T02:26:05.327Z,16.86
2018-06-04T02:27:05.294Z,16.96
2018-06-04T02:28:05.264Z,16.89
2018-06-04T02:29:05.232Z,16.68
2018-06-04T02:30:05.198Z,16.54
2018-06-04T02:31:05.170Z,16.49
2018-06-04T02:32:05.125Z,16.51
2018-06-04T02:33:05.097Z,16.49
2018-06-04T02:34:05.060Z,16.43
2018-06-04T02:35:05.028Z,16.53
2018-06-04T02:36:05.001Z,16.53
2018-06-04T02:37:04.968Z,16.53
2018-06-04T02:38:04.933Z,16.54
2018-06-04T02:39:04.895Z,16.54
2018-06-04T02:40:04.868Z,16.60
2018-06-04T02:41:04.835Z,16.66
2018-06-04T02:42:04.809Z,16.60
2018-06-04T02:43:04.769Z,16.69
2018-06-04T02:44:04.734Z,16.64
2018-06-04T02:45:04.698Z,16.61
2018-06-04T02:46:04.664Z,16.71
2018-06-04T02:47:04.629Z,16.68
2018-06-04T02:48:04.602Z,16.64
2018-06-04T02:49:04.567Z,16.68
2018-06-04T02:50:04.608Z,16.60
2018-06-04T02:51:04.502Z,16.66
2018-06-04T02:52:05.348Z,16.65
2018-06-04T02:53:04.430Z,16.71
2018-06-04T02:54:04.400Z,16.75
2018-06-04T02:55:04.371Z,16.64
2018-06-04T02:56:04.330Z,16.76
2018-06-04T02:57:04.299Z,16.65
2018-06-04T02:58:04.264Z,16.69
2018-06-04T02:59:04.228Z,16.68
2018-06-04T03:00:04.206Z,16.65
2018-06-04T03:01:04.171Z,16.69
2018-06-04T03:02:04.183Z,16.68
2018-06-04T03:03:04.147Z,16.72
2018-06-04T03:04:04.062Z,16.61
2018-06-04T03:05:04.031Z,16.71
2018-06-04T03:06:04.003Z,16.58
2018-06-04T03:07:03.964Z,16.61
2018-06-04T03:08:03.936Z,16.50
2018-06-04T03:09:03.900Z,16.53
2018-06-04T03:10:03.867Z,16.54
2018-06-04T03:11:03.831Z,16.56
2018-06-04T03:12:03.802Z,16.60
2018-06-04T03:13:03.771Z,16.71
2018-06-04T03:14:03.737Z,16.65
2018-06-04T03:15:03.703Z,16.66
2018-06-04T03:16:03.661Z,16.68
2018-06-04T03:17:03.633Z,16.66
2018-06-04T03:18:03.597Z,16.69
2018-06-04T03:19:03.564Z,16.72
2018-06-04T03:20:03.535Z,16.66
2018-06-04T03:21:03.499Z,16.64
2018-06-04T03:22:03.467Z,16.61
2018-06-04T03:23:03.435Z,16.57
2018-06-04T03:24:03.393Z,16.57
2018-06-04T03:25:03.364Z,16.50
2018-06-04T03:26:03.333Z,16.58
2018-06-04T03:27:03.300Z,16.60
2018-06-04T03:28:03.260Z,16.58
2018-06-04T03:29:03.234Z,16.61
2018-06-04T03:30:03.197Z,16.64
2018-06-04T03:31:03.161Z,16.71
2018-06-04T03:32:03.135Z,16.74
2018-06-04T03:33:03.100Z,16.78
2018-06-04T03:34:03.067Z,16.89
2018-06-04T03:35:03.031Z,16.90
2018-06-04T03:36:02.994Z,16.90
2018-06-04T03:37:02.960Z,16.87
2018-06-04T03:38:02.933Z,16.97
2018-06-04T03:39:02.894Z,16.93
2018-06-04T03:40:02.867Z,16.99
2018-06-04T03:41:02.832Z,17.06
2018-06-04T03:42:02.793Z,17.06
2018-06-04T03:43:02.759Z,17.01
2018-06-04T03:44:02.732Z,17.02
2018-06-04T03:45:02.704Z,17.05
2018-06-04T03:46:02.665Z,17.06
2018-06-04T03:47:02.636Z,17.08
2018-06-04T03:48:02.591Z,17.12
2018-06-04T03:49:02.561Z,17.14
2018-06-04T03:50:02.527Z,17.20
2018-06-04T03:51:02.493Z,17.19
2018-06-04T03:52:02.500Z,17.15
2018-06-04T03:53:02.429Z,17.06
2018-06-04T03:54:02.391Z,17.08
2018-06-04T03:55:02.367Z,17.02
2018-06-04T03:56:02.327Z,17.09
2018-06-04T03:57:02.293Z,17.06
2018-06-04T03:58:02.263Z,17.05
2018-06-04T03:59:02.230Z,17.05
2018-06-04T04:00:02.191Z,16.97
2018-06-04T04:01:02.158Z,17.02
2018-06-04T04:02:02.129Z,16.91
2018-06-04T04:03:02.092Z,16.96
2018-06-04T04:04:02.062Z,16.87
2018-06-04T04:05:02.031Z,16.90
2018-06-04T04:06:01.995Z,16.91
2018-06-04T04:07:01.966Z,16.83
2018-06-04T04:08:01.923Z,16.87
2018-06-04T04:09:01.897Z,16.83
2018-06-04T04:10:01.860Z,17.01
2018-06-04T04:11:01.821Z,16.99
2018-06-04T04:12:01.805Z,17.09
2018-06-04T04:13:01.760Z,17.08
2018-06-04T04:14:01.729Z,17.09
2018-06-04T04:15:01.688Z,17.09
2018-06-04T04:16:01.664Z,17.15
2018-06-04T04:17:01.628Z,17.22
2018-06-04T04:18:01.591Z,17.20
2018-06-04T04:19:01.563Z,17.30
2018-06-04T04:20:01.522Z,17.24
2018-06-04T04:21:01.493Z,17.20
2018-06-04T04:22:01.459Z,17.29
2018-06-04T04:23:01.421Z,17.16
2018-06-04T04:24:01.397Z,17.19
2018-06-04T04:25:01.363Z,17.12
2018-06-04T04:26:01.335Z,17.16
2018-06-04T04:27:01.296Z,17.15
2018-06-04T04:28:01.285Z,17.06
2018-06-04T04:29:01.227Z,17.14
2018-06-04T04:30:01.196Z,17.16
2018-06-04T04:31:01.163Z,17.27
2018-06-04T04:32:01.126Z,17.22
2018-06-04T04:33:01.095Z,17.27
2018-06-04T04:34:01.060Z,17.39
2018-06-04T04:35:01.026Z,17.39
2018-06-04T04:36:00.998Z,17.54
2018-06-04T04:37:00.965Z,17.60
2018-06-04T04:38:00.930Z,17.63
2018-06-04T04:39:00.897Z,17.70
2018-06-04T04:40:00.860Z,17.74
2018-06-04T04:41:00.827Z,17.78
2018-06-04T04:42:00.797Z,17.83
2018-06-04T04:43:00.760Z,17.94
2018-06-04T04:44:00.735Z,18.00
2018-06-04T04:45:00.701Z,17.97
2018-06-04T04:46:00.664Z,18.00
2018-06-04T04:47:00.630Z,17.94
2018-06-04T04:48:00.602Z,17.90
2018-06-04T04:49:00.567Z,17.98
2018-06-04T04:50:00.536Z,17.98
2018-06-04T04:51:00.505Z,17.97
2018-06-04T04:52:00.463Z,18.01
2018-06-04T04:53:00.434Z,17.98
2018-06-04T04:54:00.400Z,17.95
2018-06-04T04:55:00.367Z,18.01
2018-06-04T04:56:00.341Z,18.01
2018-06-04T04:57:00.305Z,17.94
2018-06-04T04:58:00.274Z,18.04
2018-06-04T04:59:00.242Z,18.07
2018-06-04T05:00:00.200Z,18.03
2018-06-04T05:01:00.173Z,18.11
2018-06-04T05:02:00.141Z,18.11
2018-06-04T05:03:00.109Z,18.05
2018-06-04T05:04:00.076Z,18.19
2018-06-04T05:05:00.042Z,18.29
2018-06-04T05:06:00.015Z,18.18
2018-06-04T05:06:59.975Z,18.25
2018-06-04T05:07:59.948Z,18.33
2018-06-04T05:08:59.914Z,18.31
2018-06-04T05:09:59.881Z,18.33
2018-06-04T05:10:59.849Z,18.44
2018-06-04T05:11:59.814Z,18.33
2018-06-04T05:12:59.782Z,18.38
2018-06-04T05:13:59.750Z,18.47
2018-06-04T05:14:59.714Z,18.55
2018-06-04T05:15:59.691Z,18.56
2018-06-04T05:16:59.655Z,18.70
2018-06-04T05:17:59.619Z,18.63
2018-06-04T05:18:59.587Z,18.70
2018-06-04T05:19:59.562Z,18.83
2018-06-04T05:20:59.526Z,18.95
2018-06-04T05:21:59.494Z,18.96
2018-06-04T05:22:59.467Z,19.11
2018-06-04T05:23:59.427Z,19.18
2018-06-04T05:24:59.396Z,19.16
2018-06-04T05:25:59.365Z,19.15
2018-06-04T05:26:59.896Z,19.15
2018-06-04T05:27:59.302Z,19.24
2018-06-04T05:28:59.269Z,19.21
2018-06-04T05:29:59.234Z,19.34
2018-06-04T05:30:59.204Z,19.26
2018-06-04T05:31:59.170Z,19.22
2018-06-04T05:32:59.137Z,19.33
2018-06-04T05:33:59.111Z,19.33
2018-06-04T05:34:59.079Z,19.51
2018-06-04T05:35:59.042Z,19.48
2018-06-04T05:36:59.012Z,19.47
2018-06-04T05:37:58.980Z,19.48
2018-06-04T05:38:58.944Z,19.47
2018-06-04T05:39:58.929Z,19.51
2018-06-04T05:40:58.888Z,19.52
2018-06-04T05:41:58.855Z,19.51
2018-06-04T05:42:58.825Z,19.52
2018-06-04T05:43:58.789Z,19.67
2018-06-04T05:44:58.758Z,19.66
2018-06-04T05:45:58.727Z,19.67
2018-06-04T05:46:58.692Z,19.71
2018-06-04T05:47:58.665Z,19.82
2018-06-04T05:48:58.634Z,19.82
2018-06-04T05:49:58.637Z,19.86
2018-06-04T05:50:58.563Z,19.94
2018-06-04T05:51:58.539Z,19.92
2018-06-04T05:52:58.507Z,19.88
2018-06-04T05:53:58.477Z,20.03
2018-06-04T05:54:58.446Z,20.11
2018-06-04T05:55:58.443Z,20.06
2018-06-04T05:56:58.378Z,20.11
2018-06-04T05:57:58.348Z,19.94
2018-06-04T05:58:58.314Z,19.89
2018-06-04T05:59:58.288Z,19.95
2018-06-04T06:00:58.263Z,19.89
2018-06-04T06:01:58.226Z,19.84
2018-06-04T06:02:58.194Z,19.96
2018-06-04T06:03:58.161Z,19.94
2018-06-04T06:04:58.131Z,19.88
2018-06-04T06:05:58.106Z,19.81
2018-06-04T06:06:58.071Z,19.85
2018-06-04T06:07:58.036Z,19.79
2018-06-04T06:08:58.007Z,19.89
2018-06-04T06:09:57.973Z,19.86
2018-06-04T06:10:57.938Z,19.77
2018-06-04T06:11:57.918Z,19.86
2018-06-04T06:12:57.886Z,19.91
2018-06-04T06:13:57.850Z,19.94
2018-06-04T06:14:57.821Z,19.91
2018-06-04T06:15:57.784Z,19.88
2018-06-04T06:16:57.756Z,20.07
2018-06-04T06:17:57.724Z,20.19
2018-06-04T06:18:57.691Z,20.19
2018-06-04T06:19:57.665Z,20.09
2018-06-04T06:20:57.639Z,20.21
2018-06-04T06:21:57.599Z,20.43
2018-06-04T06:22:57.574Z,20.59
2018-06-04T06:23:57.541Z,20.59
2018-06-04T06:24:57.510Z,20.67
2018-06-04T06:25:57.478Z,20.74
2018-06-04T06:26:57.453Z,20.81
2018-06-04T06:27:57.413Z,20.92
2018-06-04T06:28:57.384Z,20.97
2018-06-04T06:29:57.353Z,20.97
2018-06-04T06:30:57.319Z,20.99
2018-06-04T06:31:57.299Z,21.06
2018-06-04T06:32:57.264Z,21.15
2018-06-04T06:33:57.231Z,21.12
2018-06-04T06:34:57.203Z,21.15
2018-06-04T06:35:57.168Z,21.21
2018-06-04T06:36:57.139Z,21.30
2018-06-04T06:37:57.109Z,21.22
2018-06-04T06:38:57.081Z,21.15
2018-06-04T06:39:57.048Z,21.24
2018-06-04T06:40:57.017Z,21.21
2018-06-04T06:41:56.992Z,21.27
2018-06-04T06:42:56.951Z,21.37
2018-06-04T06:43:56.934Z,21.40
2018-06-04T06:44:56.897Z,21.46
2018-06-04T06:45:56.868Z,21.55
2018-06-04T06:46:56.839Z,21.70
2018-06-04T06:47:56.800Z,21.66
2018-06-04T06:48:56.775Z,21.69
2018-06-04T06:49:56.744Z,21.67
2018-06-04T06:50:56.711Z,21.69
2018-06-04T06:51:56.686Z,21.69
2018-06-04T06:52:56.660Z,21.61
2018-06-04T06:53:56.623Z,21.72
2018-06-04T06:54:56.590Z,21.70
2018-06-04T06:55:56.568Z,21.58
2018-06-04T06:56:56.541Z,21.50
2018-06-04T06:57:56.504Z,21.58
2018-06-04T06:58:56.478Z,21.57
2018-06-04T06:59:56.441Z,21.60
2018-06-04T07:00:56.414Z,21.55
2018-06-04T07:01:56.417Z,21.70
2018-06-04T07:02:56.352Z,21.72
2018-06-04T07:03:56.336Z,21.70
2018-06-04T07:04:56.296Z,21.60
2018-06-04T07:05:56.267Z,21.64
2018-06-04T07:06:56.249Z,21.69
2018-06-04T07:07:56.200Z,21.89
2018-06-04T07:08:56.177Z,21.82
2018-06-04T07:09:56.148Z,21.91
2018-06-04T07:10:56.121Z,21.92
2018-06-04T07:11:56.082Z,21.95
2018-06-04T07:12:56.058Z,21.82
2018-06-04T07:13:56.027Z,21.91
2018-06-04T07:14:55.993Z,21.89
2018-06-04T07:15:55.970Z,21.82
2018-06-04T07:16:55.941Z,21.80
2018-06-04T07:17:55.911Z,21.91
2018-06-04T07:18:55.881Z,21.95
2018-06-04T07:19:55.849Z,21.96
2018-06-04T07:20:55.822Z,21.80
2018-06-04T07:21:55.790Z,21.79
2018-06-04T07:22:55.764Z,21.76
2018-06-04T07:23:55.736Z,21.83
2018-06-04T07:24:55.705Z,21.85
2018-06-04T07:25:55.673Z,21.77
2018-06-04T07:26:55.641Z,21.82
2018-06-04T07:27:55.616Z,21.92
2018-06-04T07:28:55.586Z,21.76
2018-06-04T07:29:55.556Z,21.67
2018-06-04T07:30:55.527Z,21.62
2018-06-04T07:31:55.492Z,21.52
2018-06-04T07:32:55.467Z,21.61
2018-06-04T07:33:55.436Z,21.62
2018-06-04T07:34:55.456Z,21.62
2018-06-04T07:35:55.383Z,21.62
2018-06-04T07:36:55.352Z,21.66
2018-06-04T07:37:55.321Z,21.66
2018-06-04T07:38:55.292Z,21.61
2018-06-04T07:39:55.260Z,21.72
2018-06-04T07:40:55.232Z,21.72
2018-06-04T07:41:55.206Z,21.69
2018-06-04T07:42:55.173Z,21.66
2018-06-04T07:43:55.142Z,21.66
2018-06-04T07:44:55.114Z,21.69
2018-06-04T07:45:55.087Z,21.76
2018-06-04T07:46:55.054Z,21.70
2018-06-04T07:47:55.033Z,21.85
2018-06-04T07:48:54.997Z,21.88
2018-06-04T07:49:55.023Z,21.95
2018-06-04T07:50:54.940Z,22.00
2018-06-04T07:51:54.904Z,21.93
2018-06-04T07:52:54.877Z,21.91
2018-06-04T07:53:54.848Z,21.95
2018-06-04T07:54:54.815Z,21.88
2018-06-04T07:55:54.794Z,21.83
2018-06-04T07:56:54.763Z,21.88
2018-06-04T07:57:54.729Z,21.88
2018-06-04T07:58:54.695Z,21.89
2018-06-04T07:59:54.674Z,21.88
2018-06-04T08:00:54.644Z,21.83
2018-06-04T08:01:54.614Z,21.80
2018-06-04T08:02:54.587Z,21.82
2018-06-04T08:03:54.548Z,21.85
2018-06-04T08:04:54.524Z,21.79
2018-06-04T08:05:54.495Z,21.79
2018-06-04T08:06:54.460Z,21.88
2018-06-04T08:07:54.441Z,21.85
2018-06-04T08:08:54.408Z,21.93
2018-06-04T08:09:54.418Z,21.89
2018-06-04T08:10:54.348Z,21.93
2018-06-04T08:11:54.314Z,21.85
2018-06-04T08:12:54.289Z,21.79
2018-06-04T08:13:54.263Z,21.82
2018-06-04T08:14:54.234Z,21.80
2018-06-04T08:15:54.196Z,21.85
2018-06-04T08:16:54.171Z,22.00
2018-06-04T08:17:54.177Z,21.98
2018-06-04T08:18:54.106Z,21.96
2018-06-04T08:19:54.086Z,21.93
2018-06-04T08:20:54.061Z,21.95
2018-06-04T08:21:54.023Z,21.92
2018-06-04T08:22:53.996Z,21.96
2018-06-04T08:23:54.002Z,21.95
2018-06-04T08:24:53.934Z,21.92
2018-06-04T08:25:53.905Z,22.00
2018-06-04T08:26:53.876Z,22.11
2018-06-04T08:27:53.849Z,22.22
2018-06-04T08:28:53.820Z,22.14
2018-06-04T08:29:53.786Z,22.22
2018-06-04T08:30:53.758Z,22.29
2018-06-04T08:31:53.732Z,22.41
2018-06-04T08:32:53.702Z,22.33
2018-06-04T08:33:53.668Z,22.25
2018-06-04T08:34:53.641Z,22.11
2018-06-04T08:35:53.607Z,22.22
2018-06-04T08:36:53.582Z,22.41
2018-06-04T08:37:53.546Z,22.32
2018-06-04T08:38:53.520Z,22.45
2018-06-04T08:39:53.496Z,22.50
2018-06-04T08:40:53.466Z,22.63
2018-06-04T08:41:53.435Z,22.69
2018-06-04T08:42:53.407Z,22.68
2018-06-04T08:43:53.374Z,22.66
2018-06-04T08:44:53.343Z,22.59
2018-06-04T08:45:53.329Z,22.63
2018-06-04T08:46:53.287Z,22.62
2018-06-04T08:47:53.256Z,22.78
2018-06-04T08:48:53.226Z,22.73
2018-06-04T08:49:53.195Z,22.75
2018-06-04T08:50:53.180Z,22.68
2018-06-04T08:51:53.143Z,22.81
2018-06-04T08:52:53.112Z,22.85
2018-06-04T08:53:53.083Z,22.83
2018-06-04T08:54:53.053Z,22.81
2018-06-04T08:55:53.025Z,22.84
2018-06-04T08:56:52.992Z,22.88
2018-06-04T08:57:52.959Z,22.98
2018-06-04T08:58:52.932Z,23.00
2018-06-04T08:59:52.906Z,22.93
2018-06-04T09:00:52.880Z,22.87
2018-06-04T09:01:52.843Z,22.93
2018-06-04T09:02:52.815Z,22.94
2018-06-04T09:03:52.790Z,22.91
2018-06-04T09:04:52.760Z,22.98
2018-06-04T09:05:52.731Z,22.99
2018-06-04T09:06:52.700Z,22.93
2018-06-04T09:07:52.669Z,23.02
2018-06-04T09:08:52.642Z,23.12
2018-06-04T09:09:52.622Z,23.02
2018-06-04T09:10:52.584Z,23.12
2018-06-04T09:11:52.555Z,23.13
2018-06-04T09:12:52.529Z,23.31
2018-06-04T09:13:52.498Z,23.28
2018-06-04T09:14:52.468Z,23.37
2018-06-04T09:15:52.436Z,23.43
2018-06-04T09:16:52.404Z,23.32
2018-06-04T09:17:52.385Z,23.25
2018-06-04T09:18:52.350Z,23.20
2018-06-04T09:19:52.321Z,23.15
2018-06-04T09:20:52.288Z,23.17
2018-06-04T09:21:52.257Z,23.25
2018-06-04T09:22:52.234Z,23.10
2018-06-04T09:23:52.206Z,23.15
2018-06-04T09:24:52.178Z,23.10
2018-06-04T09:25:52.150Z,23.27
2018-06-04T09:26:52.120Z,23.27
2018-06-04T09:27:52.091Z,23.32
2018-06-04T09:28:52.055Z,23.23
2018-06-04T09:29:52.025Z,23.44
2018-06-04T09:30:52.003Z,23.44
2018-06-04T09:31:51.974Z,23.46
2018-06-04T09:32:51.947Z,23.51
2018-06-04T09:33:51.910Z,23.54
2018-06-04T09:34:51.885Z,23.63
2018-06-04T09:35:51.860Z,23.71
2018-06-04T09:36:51.832Z,23.73
2018-06-04T09:37:51.803Z,23.80
2018-06-04T09:38:51.773Z,23.84
2018-06-04T09:39:51.742Z,23.76
2018-06-04T09:40:51.708Z,23.73
2018-06-04T09:41:51.678Z,23.80
2018-06-04T09:42:51.653Z,23.76
2018-06-04T09:43:51.628Z,23.76
2018-06-04T09:44:51.600Z,23.73
2018-06-04T09:45:51.571Z,23.77
2018-06-04T09:46:51.539Z,23.69
2018-06-04T09:47:51.510Z,23.69
2018-06-04T09:48:51.479Z,23.66
2018-06-04T09:49:51.454Z,23.66
2018-06-04T09:50:51.426Z,23.66
2018-06-04T09:51:51.395Z,23.74
2018-06-04T09:52:51.362Z,23.68
2018-06-04T09:53:51.340Z,23.69
2018-06-04T09:54:51.307Z,23.80
2018-06-04T09:55:51.282Z,23.68
2018-06-04T09:56:51.254Z,23.59
2018-06-04T09:57:51.226Z,23.63
2018-06-04T09:58:51.195Z,23.69
2018-06-04T09:59:51.207Z,23.56
2018-06-04T10:00:51.131Z,23.50
2018-06-04T10:01:51.106Z,23.56
2018-06-04T10:02:51.078Z,23.69
2018-06-04T10:03:51.051Z,23.73
2018-06-04T10:04:51.026Z,23.81
2018-06-04T10:05:50.993Z,23.78
2018-06-04T10:06:50.963Z,23.69
2018-06-04T10:07:50.940Z,23.68
2018-06-04T10:08:50.910Z,23.77
2018-06-04T10:09:50.882Z,23.73
2018-06-04T10:10:50.852Z,23.66
2018-06-04T10:11:50.820Z,23.84
2018-06-04T10:12:50.792Z,23.92
2018-06-04T10:13:50.762Z,23.98
2018-06-04T10:14:50.735Z,23.99
2018-06-04T10:15:50.706Z,24.13
2018-06-04T10:16:50.680Z,24.24
2018-06-04T10:17:50.649Z,24.23
2018-06-04T10:18:50.622Z,24.23
2018-06-04T10:19:50.600Z,24.23
2018-06-04T10:20:50.569Z,24.20
2018-06-04T10:21:50.537Z,24.21
2018-06-04T10:22:50.508Z,24.21
2018-06-04T10:23:50.477Z,24.17
2018-06-04T10:24:50.469Z,24.08
2018-06-04T10:25:50.421Z,23.99
2018-06-04T10:26:50.392Z,23.93
2018-06-04T10:27:50.376Z,24.01
2018-06-04T10:28:50.336Z,23.99
2018-06-04T10:29:50.309Z,24.17
2018-06-04T10:30:50.279Z,24.11
2018-06-04T10:31:50.248Z,24.18
2018-06-04T10:32:50.224Z,24.16
2018-06-04T10:33:50.187Z,24.10
2018-06-04T10:34:50.163Z,24.02
2018-06-04T10:35:50.137Z,23.99
2018-06-04T10:36:50.113Z,23.99
2018-06-04T10:37:50.104Z,23.92
2018-06-04T10:38:50.051Z,23.91
2018-06-04T10:39:50.021Z,23.98
2018-06-04T10:40:49.997Z,24.01
2018-06-04T10:41:49.967Z,24.05
2018-06-04T10:42:49.941Z,24.13
2018-06-04T10:43:49.906Z,24.17
2018-06-04T10:44:49.873Z,24.17
2018-06-04T10:45:49.843Z,24.24
2018-06-04T10:46:49.821Z,24.30
2018-06-04T10:47:49.795Z,24.32
2018-06-04T10:48:49.768Z,24.35
2018-06-04T10:49:49.748Z,24.35
2018-06-04T10:50:49.710Z,24.38
2018-06-04T10:51:49.680Z,24.40
2018-06-04T10:52:49.648Z,24.39
2018-06-04T10:53:49.625Z,24.42
2018-06-04T10:54:49.596Z,24.38
2018-06-04T10:55:49.565Z,24.42
2018-06-04T10:56:49.533Z,24.58
2018-06-04T10:57:49.505Z,24.43
2018-06-04T10:58:49.479Z,24.40
2018-06-04T10:59:49.455Z,24.38
2018-06-04T11:00:49.426Z,24.45
2018-06-04T11:01:49.398Z,24.55
2018-06-04T11:02:49.368Z,24.74
2018-06-04T11:03:49.340Z,24.91
2018-06-04T11:04:49.319Z,24.93
2018-06-04T11:05:49.277Z,24.63
2018-06-04T11:06:49.253Z,24.57
2018-06-04T11:07:49.246Z,24.48
2018-06-04T11:08:49.202Z,24.42
2018-06-04T11:09:49.164Z,24.55
2018-06-04T11:10:49.141Z,24.69
2018-06-04T11:11:49.116Z,24.73
2018-06-04T11:12:49.087Z,24.80
2018-06-04T11:13:49.060Z,24.76
2018-06-04T11:14:49.031Z,24.76
2018-06-04T11:15:49.005Z,24.74
2018-06-04T11:16:48.967Z,24.70
2018-06-04T11:17:48.943Z,24.66
2018-06-04T11:18:48.923Z,24.76
2018-06-04T11:19:48.889Z,24.73
2018-06-04T11:20:48.901Z,24.91
2018-06-04T11:21:48.835Z,24.91
2018-06-04T11:22:48.804Z,24.96
2018-06-04T11:23:48.775Z,25.04
2018-06-04T11:24:48.753Z,24.96
2018-06-04T11:25:48.742Z,25.07
2018-06-04T11:26:48.693Z,25.13
2018-06-04T11:27:48.669Z,25.08
2018-06-04T11:28:48.640Z,25.07
2018-06-04T11:29:48.613Z,25.04
2018-06-04T11:30:48.595Z,25.23
2018-06-04T11:31:48.591Z,25.08
2018-06-04T11:32:48.686Z,25.08
2018-06-04T11:33:48.497Z,25.13
2018-06-04T11:34:48.478Z,25.26
2018-06-04T11:35:48.474Z,25.25
2018-06-04T11:36:48.416Z,25.14
2018-06-04T11:37:48.377Z,25.14
2018-06-04T11:38:48.355Z,25.26
2018-06-04T11:39:48.329Z,25.25
2018-06-04T11:40:48.302Z,25.23
2018-06-04T11:41:48.268Z,25.01
2018-06-04T11:42:48.244Z,24.95
2018-06-04T11:43:48.221Z,24.96
2018-06-04T11:44:48.194Z,25.14
2018-06-04T11:45:48.171Z,25.18
2018-06-04T11:46:48.198Z,25.25
2018-06-04T11:47:48.104Z,25.04
2018-06-04T11:48:48.125Z,25.07
2018-06-04T11:49:48.046Z,25.03
2018-06-04T11:50:48.021Z,24.99
2018-06-04T11:51:47.996Z,24.91
2018-06-04T11:52:47.971Z,24.78
2018-06-04T11:53:47.960Z,24.60
2018-06-04T11:54:47.911Z,24.66
2018-06-04T11:55:47.882Z,24.63
2018-06-04T11:56:47.864Z,24.70
2018-06-04T11:57:47.832Z,24.76
2018-06-04T11:58:47.808Z,24.84
2018-06-04T11:59:47.770Z,25.03
2018-06-04T12:00:47.736Z,25.10
2018-06-04T12:01:47.710Z,25.28
2018-06-04T12:02:47.684Z,25.32
2018-06-04T12:03:47.659Z,25.29
2018-06-04T12:04:47.632Z,25.32
2018-06-04T12:05:47.605Z,25.23
2018-06-04T12:06:47.576Z,25.18
2018-06-04T12:07:47.547Z,25.18
2018-06-04T12:08:47.516Z,25.29
2018-06-04T12:09:47.484Z,25.10
2018-06-04T12:10:47.463Z,25.17
2018-06-04T12:11:47.512Z,25.22
2018-06-04T12:12:47.411Z,25.29
2018-06-04T12:13:47.375Z,25.55
2018-06-04T12:14:47.352Z,25.55
2018-06-04T12:15:47.326Z,25.70
2018-06-04T12:16:47.299Z,25.72
2018-06-04T12:17:47.273Z,25.63
2018-06-04T12:18:47.256Z,25.69
2018-06-04T12:19:47.212Z,25.78
2018-06-04T12:20:47.183Z,25.66
2018-06-04T12:21:47.151Z,25.65
2018-06-04T12:22:47.132Z,25.54
2018-06-04T12:23:47.103Z,25.50
2018-06-04T12:24:47.077Z,25.55
2018-06-04T12:25:47.050Z,25.41
2018-06-04T12:26:47.021Z,25.36
2018-06-04T12:27:46.993Z,25.51
2018-06-04T12:28:46.962Z,25.62
2018-06-04T12:29:46.939Z,25.59
2018-06-04T12:30:46.910Z,25.53
2018-06-04T12:31:46.880Z,25.65
2018-06-04T12:32:46.851Z,25.55
2018-06-04T12:33:46.824Z,25.55
2018-06-04T12:34:46.795Z,25.58
2018-06-04T12:35:46.774Z,25.51
2018-06-04T12:36:46.747Z,25.54
2018-06-04T12:37:46.719Z,25.59
2018-06-04T12:38:46.691Z,25.62
2018-06-04T12:39:46.659Z,25.55
2018-06-04T12:40:46.631Z,25.54
2018-06-04T12:41:46.601Z,25.51
2018-06-04T12:42:46.576Z,25.66
2018-06-04T12:43:46.552Z,25.66
2018-06-04T12:44:46.527Z,25.77
2018-06-04T12:45:46.491Z,25.83
2018-06-04T12:46:46.465Z,25.78
2018-06-04T12:47:46.440Z,25.75
2018-06-04T12:48:46.414Z,25.72
2018-06-04T12:49:46.387Z,25.60
2018-06-04T12:50:46.357Z,25.53
2018-06-04T12:51:46.328Z,25.65